Time;durP1;ratioP1;P1;durP2;ratioP2;P2;SDS_P1;SDS_P2;PMS_P1;PMS_P2;Temp;Humidity;BMP_temperature;BMP_pressure;BME280_temperature;BME280_humidity;BME280_pressure;Samples;Min_cycle;Max_cycle;Signal;HPM_P1;HPM_P2
2023/02/06 00:01:46;;;;;;;42.60;21.23;;;;;;;2.29;100.00;100225.34;5012863;28;20712;-76
2023/02/06 00:04:14;;;;;;;43.47;22.60;;;;;;;2.24;100.00;100229.72;5013260;28;20233;-76
2023/02/06 00:06:40;;;;;;;47.07;24.07;;;;;;;2.27;100.00;100232.31;5013083;28;20593;-76
2023/02/06 00:09:09;;;;;;;42.77;23.27;;;;;;;2.27;100.00;100221.88;5012722;28;20228;-76
2023/02/06 00:11:36;;;;;;;41.13;22.27;;;;;;;2.27;100.00;100222.72;5012797;28;20225;-76
2023/02/06 00:14:02;;;;;;;43.00;22.40;;;;;;;2.19;100.00;100229.72;5012809;28;20633;-76
2023/02/06 00:16:31;;;;;;;41.80;21.83;;;;;;;2.26;100.00;100226.22;5012625;28;20581;-76
2023/02/06 00:18:59;;;;;;;42.30;21.97;;;;;;;2.24;100.00;100217.53;5012640;28;20201;-77
2023/02/06 00:21:26;;;;;;;44.77;23.77;;;;;;;2.27;100.00;100227.97;5012637;28;20592;-77
2023/02/06 00:23:55;;;;;;;43.07;22.00;;;;;;;2.29;100.00;100230.56;5012654;28;20209;-77
2023/02/06 00:26:24;;;;;;;41.53;22.30;;;;;;;2.27;100.00;100227.09;5012582;28;20214;-76
2023/02/06 00:28:50;;;;;;;41.33;21.50;;;;;;;2.24;100.00;100227.09;5012452;28;20222;-78
2023/02/06 00:31:17;;;;;;;42.87;22.97;;;;;;;2.21;100.00;100217.53;5012600;28;20698;-76
2023/02/06 00:33:44;;;;;;;46.73;23.80;;;;;;;2.28;100.00;100219.25;5012571;28;20207;-77
2023/02/06 00:36:11;;;;;;;41.87;22.07;;;;;;;2.25;100.00;100221.88;5012434;28;20210;-76
2023/02/06 00:38:38;;;;;;;49.50;23.80;;;;;;;2.28;100.00;100224.47;5012417;28;20292;-77
2023/02/06 00:41:05;;;;;;;43.57;23.47;;;;;;;2.25;100.00;100218.41;5012169;28;20234;-77
2023/02/06 00:43:33;;;;;;;44.57;23.40;;;;;;;2.29;100.00;100215.78;5012089;28;20255;-76
2023/02/06 00:46:00;;;;;;;41.77;22.87;;;;;;;2.32;100.00;100220.97;5012356;28;20217;-77
2023/02/06 00:48:26;;;;;;;42.07;22.10;;;;;;;2.30;100.00;100224.47;5012223;28;20329;-77
2023/02/06 00:50:54;;;;;;;42.37;22.27;;;;;;;2.26;100.00;100218.41;5012045;28;20646;-77
2023/02/06 00:53:21;;;;;;;45.03;22.13;;;;;;;2.23;100.00;100218.44;5012347;28;20234;-76
2023/02/06 00:55:47;;;;;;;46.10;24.50;;;;;;;2.33;100.00;100222.72;5012090;28;20592;-76
2023/02/06 00:58:14;;;;;;;40.93;21.67;;;;;;;2.23;100.00;100217.53;5012083;28;20214;-76
2023/02/06 01:00:42;;;;;;;42.33;22.70;;;;;;;2.14;100.00;100215.81;5011848;28;20292;-77
2023/02/06 01:03:08;;;;;;;40.43;22.10;;;;;;;2.20;100.00;100218.41;5011223;28;20244;-76
2023/02/06 01:05:35;;;;;;;42.00;22.57;;;;;;;2.21;100.00;100216.69;5012119;28;20213;-77
2023/02/06 01:08:01;;;;;;;47.70;23.80;;;;;;;2.22;100.00;100214.09;5012199;28;20679;-77
2023/02/06 01:10:28;;;;;;;45.00;23.97;;;;;;;2.20;100.00;100221.03;5011835;28;20568;-77
2023/02/06 01:12:54;;;;;;;46.23;23.13;;;;;;;2.12;100.00;100220.19;5012217;28;20239;-76
2023/02/06 01:15:21;;;;;;;43.80;23.17;;;;;;;2.18;100.00;100222.78;5011880;28;20221;-76
2023/02/06 01:17:49;;;;;;;42.30;22.67;;;;;;;2.20;100.00;100225.41;5011829;28;20210;-76
2023/02/06 01:20:16;;;;;;;41.77;22.33;;;;;;;2.19;100.00;100234.94;5011492;28;20209;-76
2023/02/06 01:22:42;;;;;;;46.93;24.37;;;;;;;2.21;100.00;100233.19;5011493;28;20317;-77
2023/02/06 01:25:09;;;;;;;45.73;24.10;;;;;;;2.27;100.00;100227.97;5011610;28;20211;-77
2023/02/06 01:27:36;;;;;;;45.47;24.37;;;;;;;2.23;100.00;100241.03;5011910;28;20205;-76
2023/02/06 01:30:04;;;;;;;44.83;24.13;;;;;;;2.22;100.00;100234.94;5011471;28;20201;-76
2023/02/06 01:32:31;;;;;;;50.37;24.73;;;;;;;2.12;100.00;100225.41;5011437;28;20230;-76
2023/02/06 01:34:59;;;;;;;45.27;24.23;;;;;;;2.12;100.00;100230.63;5011690;28;20215;-76
2023/02/06 01:37:25;;;;;;;48.90;23.80;;;;;;;2.09;100.00;100227.16;5011451;28;20210;-77
2023/02/06 01:39:52;;;;;;;43.20;23.13;;;;;;;2.07;100.00;100227.16;5011393;28;20217;-78
2023/02/06 01:42:18;;;;;;;47.27;24.60;;;;;;;2.09;100.00;100228.00;5011204;28;20241;-77
2023/02/06 01:44:45;;;;;;;47.23;25.43;;;;;;;2.20;100.00;100226.25;5011760;28;20220;-76
2023/02/06 01:47:12;;;;;;;49.03;24.87;;;;;;;2.14;100.00;100221.03;5011384;28;20233;-77
2023/02/06 01:49:43;;;;;;;46.47;24.70;;;;;;;2.12;100.00;100222.78;5011158;28;20206;-76
2023/02/06 01:52:18;;;;;;;45.60;24.93;;;;;;;2.10;100.00;100227.16;5011217;28;20240;-77
2023/02/06 01:54:48;;;;;;;46.27;23.80;;;;;;;2.16;100.00;100218.44;5011626;28;20212;-77
2023/02/06 01:57:16;;;;;;;45.70;24.57;;;;;;;2.14;100.00;100218.44;5011491;28;20213;-77
2023/02/06 01:59:47;;;;;;;46.60;24.07;;;;;;;2.17;100.00;100223.66;5010839;28;20210;-77
2023/02/06 02:02:14;;;;;;;45.13;24.07;;;;;;;2.14;100.00;100213.22;5011093;28;20229;-78
2023/02/06 02:04:41;;;;;;;48.20;25.47;;;;;;;2.13;100.00;100214.09;5011229;28;20563;-77
2023/02/06 02:07:16;;;;;;;43.50;23.90;;;;;;;2.14;100.00;100221.03;5011442;28;20224;-76
2023/02/06 02:09:43;;;;;;;41.33;22.70;;;;;;;2.15;100.00;100220.16;5011202;28;20213;-77
2023/02/06 02:12:10;;;;;;;41.33;23.57;;;;;;;2.15;100.00;100222.78;5011204;28;20229;-77
2023/02/06 02:14:38;;;;;;;46.67;24.17;;;;;;;2.14;100.00;100215.81;5013557;28;20224;-75
2023/02/06 02:17:25;;;;;;;42.80;24.30;;;;;;;2.19;100.00;100218.41;5014857;28;20220;-76
2023/02/06 02:20:25;;;;;;;44.83;24.30;;;;;;;2.16;100.00;100221.03;5014855;28;20209;-76
2023/02/06 02:22:59;;;;;;;43.73;24.37;;;;;;;2.13;100.00;100213.22;5014856;28;20233;-76
2023/02/06 02:25:51;;;;;;;42.07;24.87;;;;;;;2.10;100.00;100218.44;5015103;28;20217;-75
2023/02/06 02:28:35;;;;;;;45.73;24.63;;;;;;;2.20;100.00;100220.19;5014904;28;20205;-76
2023/02/06 02:31:21;;;;;;;38.83;22.37;;;;;;;2.17;100.00;100221.06;5014692;28;20216;-75
2023/02/06 02:34:14;;;;;;;42.73;23.57;;;;;;;2.14;100.00;100220.19;5014684;28;20232;-76
2023/02/06 02:36:49;;;;;;;49.83;25.53;;;;;;;2.08;100.00;100217.59;5014789;28;20221;-75
2023/02/06 02:39:24;;;;;;;44.50;24.77;;;;;;;2.09;100.00;100207.13;5014486;28;20749;-76
2023/02/06 02:41:56;;;;;;;46.90;24.53;;;;;;;2.21;100.00;100211.47;5014417;28;20228;-76
2023/02/06 02:44:30;;;;;;;43.10;23.33;;;;;;;2.15;100.00;100206.28;5015131;28;20220;-76
2023/02/06 02:47:02;;;;;;;43.10;23.83;;;;;;;2.13;100.00;100208.88;5014462;28;20781;-76
2023/02/06 02:49:31;;;;;;;42.67;23.80;;;;;;;2.15;100.00;100201.91;5014210;28;20207;-75
2023/02/06 02:52:00;;;;;;;42.90;23.83;;;;;;;2.11;100.00;100200.19;5014423;28;20735;-76
2023/02/06 02:54:27;;;;;;;43.00;24.13;;;;;;;2.12;100.00;100201.94;5014461;28;20216;-76
2023/02/06 02:56:57;;;;;;;47.00;25.13;;;;;;;2.16;100.00;100202.78;5014445;28;20210;-76
2023/02/06 02:59:28;;;;;;;43.13;23.97;;;;;;;2.19;100.00;100203.63;5014113;28;20214;-76
2023/02/06 03:01:58;;;;;;;41.80;24.47;;;;;;;2.27;100.00;100195.78;5014024;28;20232;-76
2023/02/06 03:04:31;;;;;;;41.03;23.47;;;;;;;2.30;100.00;100195.78;5015178;28;20220;-75
2023/02/06 03:07:12;;;;;;;46.00;25.83;;;;;;;2.25;100.00;100203.63;5014833;28;20215;-75
2023/02/06 03:09:47;;;;;;;41.87;23.17;;;;;;;2.27;100.00;100211.44;5014513;28;20217;-75
2023/02/06 03:12:19;;;;;;;43.93;24.17;;;;;;;2.17;100.00;100201.91;5013979;28;20232;-75
2023/02/06 03:14:51;;;;;;;40.33;22.50;;;;;;;2.17;100.00;100194.97;5014106;28;20213;-76
2023/02/06 03:17:22;;;;;;;41.30;22.27;;;;;;;2.16;100.00;100197.56;5013983;28;20221;-76
2023/02/06 03:19:53;;;;;;;39.40;23.23;;;;;;;2.16;100.00;100193.22;5013553;28;20590;-76
2023/02/06 03:22:21;;;;;;;40.43;23.60;;;;;;;2.16;100.00;100203.66;5013993;28;20241;-75
2023/02/06 03:24:50;;;;;;;42.93;23.73;;;;;;;2.15;100.00;100201.06;5013476;28;20213;-76
2023/02/06 03:27:18;;;;;;;44.10;24.83;;;;;;;2.08;100.00;100197.59;5013314;28;20217;-76
2023/02/06 03:29:50;;;;;;;41.33;23.90;;;;;;;2.06;100.00;100199.34;5013358;28;20213;-76
2023/02/06 03:32:22;;;;;;;39.70;23.87;;;;;;;2.06;100.00;100195.84;5013448;28;20228;-76
2023/02/06 03:34:56;;;;;;;42.27;23.97;;;;;;;2.06;100.00;100188.91;5013904;28;20621;-76
2023/02/06 03:37:25;;;;;;;45.70;24.97;;;;;;;2.03;100.00;100196.72;5013770;28;20216;-76
2023/02/06 03:39:51;;;;;;;40.53;23.53;;;;;;;2.01;100.00;100192.38;5013177;28;20205;-76
2023/02/06 03:42:20;;;;;;;46.07;24.57;;;;;;;2.06;100.00;100196.72;5013320;28;20237;-76
2023/02/06 03:44:51;;;;;;;36.90;22.97;;;;;;;2.11;100.00;100199.31;5013230;28;20213;-76
2023/02/06 03:47:20;;;;;;;42.30;24.40;;;;;;;2.02;100.00;100189.78;5013582;28;20225;-76
2023/02/06 03:49:49;;;;;;;40.97;23.93;;;;;;;1.98;100.00;100208.94;5013189;28;20217;-76
2023/02/06 03:52:19;;;;;;;39.03;23.70;;;;;;;2.12;100.00;100207.16;5013350;28;20226;-76
2023/02/06 03:54:51;;;;;;;41.73;24.43;;;;;;;2.08;100.00;100205.41;5013197;28;20207;-76
2023/02/06 03:57:20;;;;;;;38.50;23.27;;;;;;;2.05;100.00;100210.66;5013017;28;20209;-76
2023/02/06 03:59:47;;;;;;;38.03;22.87;;;;;;;2.05;100.00;100215.88;5013019;28;20207;-75
2023/02/06 04:02:16;;;;;;;40.43;24.27;;;;;;;2.04;100.00;100221.97;5013228;28;20244;-75
2023/02/06 04:04:44;;;;;;;45.80;23.93;;;;;;;2.03;100.00;100217.59;5013107;28;20217;-76
2023/02/06 04:07:17;;;;;;;40.10;23.10;;;;;;;2.01;100.00;100215.84;5013090;28;20209;-76
2023/02/06 04:09:43;;;;;;;38.80;22.50;;;;;;;1.96;100.00;100228.06;5012542;28;20213;-76
2023/02/06 04:12:11;;;;;;;40.40;23.10;;;;;;;1.96;100.00;100221.09;5013022;28;20597;-76
2023/02/06 04:14:38;;;;;;;35.90;23.77;;;;;;;2.11;100.00;100226.28;5013139;28;20213;-76
2023/02/06 04:17:05;;;;;;;41.20;24.60;;;;;;;1.99;100.00;100220.22;5012938;28;20209;-76
2023/02/06 04:19:32;;;;;;;42.70;24.30;;;;;;;1.95;100.00;100224.56;5012493;28;20212;-76
2023/02/06 04:21:58;;;;;;;39.27;23.93;;;;;;;1.97;100.00;100222.81;5012608;28;20241;-76
2023/02/06 04:24:25;;;;;;;40.60;25.03;;;;;;;2.00;100.00;100209.78;5012741;28;20220;-76
2023/02/06 04:26:51;;;;;;;42.20;24.43;;;;;;;2.10;100.00;100205.41;5012813;28;20220;-76
2023/02/06 04:29:19;;;;;;;39.90;24.27;;;;;;;2.09;100.00;100212.34;5012315;28;20220;-76
2023/02/06 04:31:46;;;;;;;37.60;23.83;;;;;;;1.93;100.00;100204.56;5012668;28;20233;-76
2023/02/06 04:34:13;;;;;;;43.30;24.63;;;;;;;1.88;100.00;100202.00;5012580;28;20214;-76
2023/02/06 04:36:39;;;;;;;40.73;23.53;;;;;;;1.87;100.00;100210.69;5012312;28;20217;-77
2023/02/06 04:39:07;;;;;;;44.07;24.87;;;;;;;1.86;100.00;100208.97;5012468;28;20214;-76
2023/02/06 04:41:34;;;;;;;34.40;22.50;;;;;;;1.84;100.00;100213.28;5012500;28;20316;-75
2023/02/06 04:44:00;;;;;;;36.53;21.77;;;;;;;1.86;100.00;100206.34;5012356;28;20240;-76
2023/02/06 04:46:28;;;;;;;37.57;22.73;;;;;;;1.77;100.00;100213.31;5012451;28;20216;-76
2023/02/06 04:48:55;;;;;;;35.83;22.13;;;;;;;1.80;100.00;100208.09;5011908;28;20696;-76
2023/02/06 04:51:21;;;;;;;37.57;23.20;;;;;;;1.79;100.00;100207.19;5012000;28;20288;-75
2023/02/06 04:53:47;;;;;;;33.67;22.13;;;;;;;1.77;100.00;100210.72;5012116;28;20215;-76
2023/02/06 04:56:14;;;;;;;40.00;23.43;;;;;;;1.65;100.00;100214.19;5012351;28;20214;-76
2023/02/06 04:58:40;;;;;;;38.10;23.83;;;;;;;1.71;100.00;100208.97;5012227;28;20221;-76
2023/02/06 05:01:07;;;;;;;37.37;23.57;;;;;;;1.66;100.00;100204.63;5011905;28;20205;-75
2023/02/06 05:03:35;;;;;;;39.03;22.97;;;;;;;1.71;100.00;100211.56;5024856;23;20249;-77
2023/02/06 05:06:02;;;;;;;38.63;23.63;;;;;;;1.67;100.00;100214.19;5011917;28;20219;-77
2023/02/06 05:08:29;;;;;;;37.33;22.87;;;;;;;1.67;100.00;100216.78;5012083;28;20213;-77
2023/02/06 05:10:56;;;;;;;36.73;22.37;;;;;;;1.64;100.00;100215.06;5011548;28;20633;-77
2023/02/06 05:13:23;;;;;;;37.07;24.07;;;;;;;1.63;100.00;100215.94;5011873;28;20225;-77
2023/02/06 05:15:49;;;;;;;36.47;23.57;;;;;;;1.61;100.00;100222.84;5011889;28;20236;-77
2023/02/06 05:18:16;;;;;;;35.33;23.20;;;;;;;1.61;100.00;100209.84;5011642;28;20221;-77
2023/02/06 05:20:44;;;;;;;38.83;23.00;;;;;;;1.53;100.00;100214.19;5011627;28;20231;-77
2023/02/06 05:23:10;;;;;;;35.37;22.67;;;;;;;1.48;100.00;100221.13;5011935;28;20233;-77
2023/02/06 05:25:37;;;;;;;38.40;22.93;;;;;;;1.59;100.00;100219.41;5011863;28;20214;-77
2023/02/06 05:28:05;;;;;;;38.33;24.47;;;;;;;1.61;100.00;100222.84;5011697;28;20681;-76
2023/02/06 05:30:32;;;;;;;36.37;22.80;;;;;;;1.59;100.00;100219.41;5011702;28;20210;-77
2023/02/06 05:32:58;;;;;;;34.63;22.47;;;;;;;1.66;100.00;100215.91;5011483;28;20252;-77
2023/02/06 05:35:25;;;;;;;36.60;22.77;;;;;;;1.65;100.00;100224.59;5011673;28;20214;-77
2023/02/06 05:37:52;;;;;;;35.57;22.27;;;;;;;1.56;100.00;100223.75;5011654;28;20209;-76
2023/02/06 05:40:19;;;;;;;35.77;22.63;;;;;;;1.57;100.00;100221.16;5011020;28;20220;-76
2023/02/06 05:42:46;;;;;;;38.77;23.10;;;;;;;1.62;100.00;100219.41;5011393;28;20240;-77
2023/02/06 05:45:12;;;;;;;39.20;23.30;;;;;;;1.59;100.00;100213.34;5011435;28;20213;-77
2023/02/06 05:47:39;;;;;;;36.30;22.90;;;;;;;1.57;100.00;100221.16;5011175;28;20214;-76
2023/02/06 05:50:06;;;;;;;34.50;21.30;;;;;;;1.53;100.00;100219.41;5010732;28;20315;-77
2023/02/06 05:52:32;;;;;;;36.83;23.20;;;;;;;1.57;100.00;100226.34;5011560;28;20222;-76
2023/02/06 05:55:00;;;;;;;35.17;22.63;;;;;;;1.51;100.00;100215.94;5011334;28;20215;-77
2023/02/06 05:57:27;;;;;;;35.20;22.97;;;;;;;1.51;100.00;100221.16;5011492;28;20236;-77
2023/02/06 05:59:53;;;;;;;36.10;22.90;;;;;;;1.51;100.00;100217.66;5011155;28;20215;-77
2023/02/06 06:02:20;;;;;;;34.83;22.63;;;;;;;1.48;100.00;100215.06;5010923;28;20248;-77
2023/02/06 06:04:46;;;;;;;37.07;22.90;;;;;;;1.52;100.00;100207.25;5011532;28;20217;-77
2023/02/06 06:07:13;;;;;;;38.13;24.70;;;;;;;1.50;100.00;100214.19;5011470;28;20212;-77
2023/02/06 06:09:40;;;;;;;37.83;23.77;;;;;;;1.55;100.00;100222.00;5011228;28;20210;-77
2023/02/06 06:12:07;;;;;;;34.27;21.33;;;;;;;1.62;100.00;100222.03;5011434;28;20227;-76
2023/02/06 06:14:34;;;;;;;34.60;21.43;;;;;;;1.60;100.00;100223.72;5011220;28;20702;-76
2023/02/06 06:17:01;;;;;;;32.40;20.87;;;;;;;1.55;100.00;100232.44;5011285;28;20216;-76
2023/02/06 06:19:27;;;;;;;36.83;21.77;;;;;;;1.54;100.00;100225.50;5010712;28;20225;-77
2023/02/06 06:21:54;;;;;;;35.13;21.77;;;;;;;1.56;100.00;100224.63;5010971;28;20233;-77
2023/02/06 06:24:20;;;;;;;37.20;22.40;;;;;;;1.64;100.00;100222.88;5011080;28;20236;-76
2023/02/06 06:26:47;;;;;;;34.00;22.27;;;;;;;1.64;100.00;100217.66;5010973;28;20209;-77
2023/02/06 06:29:14;;;;;;;36.13;21.93;;;;;;;1.65;100.00;100229.81;5010890;28;20213;-76
2023/02/06 06:31:41;;;;;;;30.23;20.23;;;;;;;1.71;100.00;100236.78;5011131;28;20209;-77
2023/02/06 06:34:07;;;;;;;31.37;20.77;;;;;;;1.64;100.00;100245.44;5011152;28;20217;-77
2023/02/06 06:36:34;;;;;;;33.63;21.23;;;;;;;1.63;100.00;100242.00;5011021;28;20213;-77
2023/02/06 06:39:00;;;;;;;34.23;20.70;;;;;;;1.67;100.00;100233.28;5010835;28;20213;-77
2023/02/06 06:41:27;;;;;;;32.13;20.33;;;;;;;1.66;100.00;100231.56;5010728;28;20217;-77
2023/02/06 06:43:55;;;;;;;30.17;19.50;;;;;;;1.67;100.00;100238.50;5010610;28;20237;-77
2023/02/06 06:46:24;;;;;;;30.73;19.47;;;;;;;1.62;100.00;100240.25;5010843;28;20213;-77
2023/02/06 06:48:50;;;;;;;28.00;18.43;;;;;;;1.68;100.00;100224.63;5010800;28;20219;-78
2023/02/06 06:51:17;;;;;;;26.03;17.50;;;;;;;1.56;100.00;100240.25;5010715;28;20211;-78
2023/02/06 06:53:43;;;;;;;24.10;16.80;;;;;;;1.64;100.00;100237.63;5010687;28;20755;-77
2023/02/06 06:56:13;;;;;;;23.97;15.90;;;;;;;1.62;100.00;100234.16;5010714;28;20209;-77
2023/02/06 06:58:40;;;;;;;24.90;15.63;;;;;;;1.66;100.00;100228.09;5010668;28;20244;-77
2023/02/06 07:01:07;;;;;;;22.50;15.13;;;;;;;1.69;100.00;100231.56;5012060;28;20210;-77
2023/02/06 07:03:35;;;;;;;23.53;14.83;;;;;;;1.67;100.00;100227.22;5014294;28;20241;-77
2023/02/06 07:06:02;;;;;;;20.50;13.77;;;;;;;1.62;100.00;100229.84;5014307;28;20226;-77
2023/02/06 07:08:28;;;;;;;21.07;14.33;;;;;;;1.58;100.00;100233.31;5014007;28;20689;-77
2023/02/06 07:10:55;;;;;;;21.90;15.20;;;;;;;1.61;100.00;100241.09;5013732;28;20213;-78
2023/02/06 07:13:21;;;;;;;20.40;13.90;;;;;;;1.62;100.00;100245.47;5014137;28;20248;-76
2023/02/06 07:15:48;;;;;;;19.27;13.17;;;;;;;1.62;100.00;100240.25;5014185;28;20214;-77
2023/02/06 07:18:14;;;;;;;22.20;14.03;;;;;;;1.67;100.00;100233.28;5027607;28;20205;-78
2023/02/06 07:20:42;;;;;;;21.87;14.27;;;;;;;1.66;100.00;100234.16;5033552;28;20209;-77
2023/02/06 07:23:09;;;;;;;19.20;12.53;;;;;;;1.68;100.00;100237.66;5033525;28;20699;-78
2023/02/06 07:25:36;;;;;;;17.17;12.40;;;;;;;1.66;100.00;100246.34;5033582;28;20753;-78
2023/02/06 07:28:02;;;;;;;23.27;12.50;;;;;;;1.66;100.00;100241.97;5033839;28;20550;-78
2023/02/06 07:30:28;;;;;;;19.77;12.53;;;;;;;1.70;100.00;100243.72;5033443;28;20217;-77
2023/02/06 07:32:55;;;;;;;17.53;11.20;;;;;;;1.66;100.00;100247.19;5033392;28;20246;-78
2023/02/06 07:35:21;;;;;;;17.63;10.90;;;;;;;1.78;100.00;100247.19;5033422;28;20576;-78
2023/02/06 07:37:52;;;;;;;16.07;11.20;;;;;;;1.77;100.00;100239.38;5033474;28;20208;-77
2023/02/06 07:40:19;;;;;;;16.93;11.60;;;;;;;1.79;100.00;100254.13;5033060;28;20247;-77
2023/02/06 07:42:45;;;;;;;15.63;11.10;;;;;;;1.80;100.00;100250.69;5033262;28;20245;-78
2023/02/06 07:45:12;;;;;;;16.23;10.63;;;;;;;1.83;100.00;100237.63;5033179;28;20220;-78
2023/02/06 07:47:38;;;;;;;15.83;10.53;;;;;;;1.78;100.00;100244.56;5033357;28;20221;-78
2023/02/06 07:50:05;;;;;;;16.30;11.03;;;;;;;1.81;100.00;100239.38;5033007;28;20221;-78
2023/02/06 07:52:32;;;;;;;15.20;10.93;;;;;;;1.72;100.00;100244.59;5033398;28;20243;-78
2023/02/06 07:55:00;;;;;;;16.37;11.30;;;;;;;1.78;100.00;100246.34;5033117;28;20202;-79
2023/02/06 07:57:26;;;;;;;13.77;10.33;;;;;;;1.78;100.00;100236.75;5033126;28;20212;-79
2023/02/06 07:59:53;;;;;;;13.77;10.30;;;;;;;1.83;100.00;100228.94;5032898;28;20215;-78
2023/02/06 08:02:19;;;;;;;14.63;10.80;;;;;;;1.84;100.00;100226.31;5032847;28;20243;-78
2023/02/06 08:04:46;;;;;;;19.00;11.67;;;;;;;1.89;100.00;100231.56;5032919;28;20708;-76
2023/02/06 08:07:13;;;;;;;16.23;10.97;;;;;;;1.86;100.00;100228.94;5032689;28;20209;-78
2023/02/06 08:09:40;;;;;;;15.77;11.17;;;;;;;1.87;100.00;100236.75;5032802;28;20209;-80
2023/02/06 08:12:09;;;;;;;15.20;10.73;;;;;;;1.90;100.00;100236.75;5032149;28;20236;-79
2023/02/06 08:14:35;;;;;;;15.83;10.90;;;;;;;1.81;100.00;100225.47;5032887;28;20208;-78
2023/02/06 08:17:03;;;;;;;13.80;11.10;;;;;;;1.84;100.00;100236.75;5032753;28;20209;-75
2023/02/06 08:19:29;;;;;;;14.80;9.50;;;;;;;1.94;100.00;100233.28;5032556;28;20584;-78
2023/02/06 08:21:56;;;;;;;12.17;9.43;;;;;;;1.93;100.00;100220.22;5032363;28;20249;-76
2023/02/06 08:24:22;;;;;;;13.13;9.73;;;;;;;1.92;100.00;100219.38;5032769;28;20240;-76
2023/02/06 08:26:48;;;;;;;14.23;9.10;;;;;;;1.98;100.00;100221.97;5032544;28;20204;-76
2023/02/06 08:29:16;;;;;;;12.63;8.87;;;;;;;2.01;100.00;100221.94;5031061;28;20327;-79
2023/02/06 08:31:43;;;;;;;12.03;9.23;;;;;;;2.05;100.00;100215.88;5031349;28;20216;-78
2023/02/06 08:34:14;;;;;;;13.93;9.57;;;;;;;2.10;100.00;100229.78;5031538;28;20675;-81
2023/02/06 08:36:41;;;;;;;14.43;10.27;;;;;;;2.16;100.00;100240.19;5031497;28;20668;-79
2023/02/06 08:39:08;;;;;;;13.03;9.10;;;;;;;2.20;100.00;100239.28;5026931;28;20209;-80
2023/02/06 08:41:37;;;;;;;14.00;8.87;;;;;;;2.20;100.00;100234.06;5010547;28;20213;-80
2023/02/06 08:44:07;;;;;;;12.80;8.87;;;;;;;2.28;100.00;100221.84;5011719;28;20301;-77
2023/02/06 08:46:35;;;;;;;12.77;7.60;;;;;;;2.34;100.00;100216.63;5011685;28;20209;-77
2023/02/06 08:49:09;;;;;;;11.97;8.37;;;;;;;2.33;100.00;100204.44;5011062;28;20221;-79
2023/02/06 08:51:36;;;;;;;15.03;8.67;;;;;;;2.36;100.00;100212.28;5011678;28;20213;-77
2023/02/06 08:54:06;;;;;;;12.03;8.30;;;;;;;2.36;100.00;100220.13;5011416;28;20244;-77
2023/02/06 08:56:33;;;;;;;10.50;7.03;;;;;;;2.41;100.00;100233.13;5012188;28;20300;-76
2023/02/06 08:59:01;;;;;;;12.20;7.07;;;;;;;2.38;100.00;100226.19;5011831;28;20209;-77
2023/02/06 09:01:30;;;;;;;13.73;6.00;;;;;;;2.32;100.00;100210.53;5012033;28;20676;-77
2023/02/06 09:04:00;;;;;;;11.43;6.83;;;;;;;2.32;98.71;100210.53;5011874;28;20237;-76
2023/02/06 09:06:27;;;;;;;10.27;7.07;;;;;;;2.23;99.39;100212.31;5012065;28;20211;-77
2023/02/06 09:08:55;;;;;;;9.33;6.90;;;;;;;2.22;100.00;100227.13;5011397;28;20209;-77
2023/02/06 09:11:24;;;;;;;13.43;7.95;;;;;;;2.27;100.00;100222.72;5011571;28;20434;-75
2023/02/06 09:13:51;;;;;;;11.17;6.70;;;;;;;2.35;100.00;100226.22;5011547;28;20225;-76
2023/02/06 09:16:19;;;;;;;7.93;6.53;;;;;;;2.38;100.00;100220.97;5012098;28;20420;-78
2023/02/06 09:18:46;;;;;;;9.53;6.97;;;;;;;2.43;100.00;100219.22;5011807;28;20229;-76
2023/02/06 09:21:16;;;;;;;13.03;7.20;;;;;;;2.46;100.00;100219.19;5011989;28;20232;-76
2023/02/06 09:23:44;;;;;;;13.98;9.85;;;;;;;2.56;100.00;100215.66;5009807;28;20458;-75
2023/02/06 09:26:13;;;;;;;11.90;8.17;;;;;;;2.57;100.00;100212.19;5011709;28;20222;-77
2023/02/06 09:28:40;;;;;;;11.90;8.07;;;;;;;2.63;100.00;100212.16;5011497;28;20214;-77
2023/02/06 09:31:06;;;;;;;9.23;7.37;;;;;;;2.73;100.00;100216.47;5011537;28;20221;-77
2023/02/06 09:33:33;;;;;;;9.83;7.33;;;;;;;2.69;100.00;100208.66;5011775;28;20230;-77
2023/02/06 09:36:04;;;;;;;10.57;7.50;;;;;;;2.68;100.00;100210.41;5011509;28;20213;-77
2023/02/06 09:38:32;;;;;;;11.57;7.60;;;;;;;2.73;100.00;100203.41;5011058;28;20210;-77
2023/02/06 09:41:01;;;;;;;11.40;8.33;;;;;;;2.73;100.00;100195.56;5011195;28;20591;-77
2023/02/06 09:43:31;;;;;;;11.43;7.57;;;;;;;2.73;100.00;100200.81;5011445;28;20231;-77
2023/02/06 09:46:04;;;;;;;11.57;7.07;;;;;;;2.75;100.00;100196.44;5011867;28;20534;-77
2023/02/06 09:48:34;;;;;;;9.47;7.50;;;;;;;2.80;100.00;100189.44;5011305;28;20688;-78
2023/02/06 09:51:09;;;;;;;12.90;7.30;;;;;;;2.87;100.00;100182.44;5011055;28;20209;-79
2023/02/06 09:53:49;;;;;;;9.57;6.83;;;;;;;2.92;100.00;100178.91;5011183;28;20244;-75
2023/02/06 09:56:26;;;;;;;7.77;6.10;;;;;;;2.93;100.00;100164.13;5011550;28;20226;-76
2023/02/06 09:58:59;;;;;;;9.40;6.20;;;;;;;2.94;100.00;100158.88;5011059;28;20213;-78
2023/02/06 10:01:32;;;;;;;8.33;5.30;;;;;;;3.04;98.88;100146.63;5011261;28;20236;-76
2023/02/06 10:04:23;;;;;;;8.23;5.70;;;;;;;3.08;96.67;100137.88;5011073;28;20235;-75
2023/02/06 10:06:58;;;;;;;8.20;4.90;;;;;;;3.06;96.47;100145.72;5011410;28;20210;-76
2023/02/06 10:09:37;;;;;;;5.43;3.63;;;;;;;3.08;96.21;100151.84;5011151;28;20234;-79
2023/02/06 10:12:12;;;;;;;5.30;4.17;;;;;;;3.12;95.31;100137.00;5011331;28;20238;-79
2023/02/06 10:14:44;;;;;;;4.90;3.97;;;;;;;3.17;94.68;100138.69;5011598;28;20197;-79
2023/02/06 10:17:17;;;;;;;6.97;4.17;;;;;;;3.19;93.81;100139.53;5011373;28;20217;-78
2023/02/06 10:19:49;;;;;;;5.33;4.27;;;;;;;3.27;93.27;100132.50;5011143;28;20214;-78
2023/02/06 10:22:20;;;;;;;5.73;4.43;;;;;;;3.27;93.05;100124.66;5010975;28;20244;-78
2023/02/06 10:24:53;;;;;;;5.40;3.87;;;;;;;3.31;92.98;100131.59;5011030;28;20276;-78
2023/02/06 10:27:20;;;;;;;6.77;4.90;;;;;;;3.32;94.72;100135.94;5011209;28;20207;-79
2023/02/06 10:29:47;;;;;;;7.70;5.23;;;;;;;3.36;94.66;100129.78;5010799;28;20249;-79
2023/02/06 10:32:28;;;;;;;7.60;4.87;;;;;;;3.46;94.46;100136.69;5010947;28;20239;-79
2023/02/06 10:35:24;;;;;;;6.90;5.00;;;;;;;3.44;93.91;100128.00;5012144;28;20709;-76
2023/02/06 10:38:08;;;;;;;7.83;5.67;;;;;;;3.49;93.02;100123.56;5014998;28;20217;-75
2023/02/06 10:40:48;;;;;;;7.63;5.40;;;;;;;3.44;92.87;100117.53;5014464;28;20808;-75
2023/02/06 10:43:24;;;;;;;8.03;5.60;;;;;;;3.50;93.42;100121.84;5014612;28;20550;-76
2023/02/06 10:45:58;;;;;;;9.40;5.57;;;;;;;3.52;92.90;100123.56;5014727;28;20778;-76
2023/02/06 10:48:32;;;;;;;6.17;4.20;;;;;;;3.55;91.79;100113.06;5014734;28;20215;-75
2023/02/06 10:51:08;;;;;;;5.70;5.03;;;;;;;3.44;90.96;100128.00;5014284;28;20300;-75
2023/02/06 10:53:39;;;;;;;7.90;5.30;;;;;;;3.39;90.18;100123.69;5014275;28;20233;-76
2023/02/06 10:56:11;;;;;;;9.47;5.37;;;;;;;3.38;90.63;100122.84;5014175;28;20206;-75
2023/02/06 10:58:42;;;;;;;6.87;4.90;;;;;;;3.35;89.72;100112.38;5014430;28;20233;-75
2023/02/06 11:01:15;;;;;;;6.67;4.53;;;;;;;3.40;90.03;100104.50;5014174;28;20209;-76
2023/02/06 11:03:50;;;;;;;7.60;5.10;;;;;;;3.41;88.78;100101.88;5039277;23;20244;-77
2023/02/06 11:06:20;;;;;;;7.77;5.00;;;;;;;3.47;88.42;100101.81;5033923;28;20205;-78
2023/02/06 11:08:48;;;;;;;6.93;5.53;;;;;;;3.40;87.88;100100.16;5034110;28;20214;-76
2023/02/06 11:11:21;;;;;;;7.33;5.00;;;;;;;3.42;88.18;100095.75;5033928;28;20222;-75
2023/02/06 11:13:51;;;;;;;5.97;4.70;;;;;;;3.33;88.55;100098.47;5018865;28;20235;-76
2023/02/06 11:16:24;;;;;;;6.53;4.87;;;;;;;3.26;89.51;100107.25;5014494;28;20212;-75
2023/02/06 11:18:52;;;;;;;7.23;5.20;;;;;;;3.25;88.84;100091.59;5013661;28;20209;-76
2023/02/06 11:21:50;;;;;;;6.90;5.57;;;;;;;3.12;88.68;100085.59;5014060;28;20269;-76
2023/02/06 11:24:19;;;;;;;7.10;4.97;;;;;;;3.09;89.51;100085.63;5013950;28;20262;-76